Terminal Aerodrome Forecast
Issued by NWS

Current Version | Previous Version | Text Only | Print | Product List | Glossary On
Versions: 1 2 3 4 5 6 7 8 9 10 11 12 13 14 15 16 17
000
FTUS43 KIND 241100
TAFHUF
TAF
KHUF 241133Z 2412/2512 23020G32KT 6SM -SHRA BR BKN020 OVC035
     FM241500 25024G35KT P6SM BKN025 OVC035
     FM242200 25014G22KT P6SM BKN030
     FM250300 25010KT P6SM BKN030
     FM250700 26007KT P6SM BKN035=

USA.gov is the U.S. government's official web portal to all federal, state and local government web resources and services.